TYS weather

McGhee Tyson Airport
Knoxville, Tennessee, United States

Public forecast

Using degrees Fahrenheit for public forecast. Weather courtesy of forecast.io.

Current aviation weather report (METAR) for McGhee Tyson Airport

Retrieved 2019/11/13 15:53 UTC (15 minutes ago):

KTYS 131553Z 00000KT 10SM FEW016 M03/M07 A3035 RMK AO2 SLP289 T10281072

Aviation forecast (TAF) for McGhee Tyson Airport

Retrieved 2019/11/13 12:24 UTC (4 hours ago):

TAF KTYS 131121Z 1312/1412 04007KT P6SM SKC FM131700 VRB05KT P6SM SKC FM140000 00000KT P6SM SCT250